Time;durP1;ratioP1;P1;durP2;ratioP2;P2;SDS_P1;SDS_P2;PMS_P1;PMS_P2;Temp;Humidity;BMP_temperature;BMP_pressure;BME280_temperature;BME280_humidity;BME280_pressure;Samples;Min_cycle;Max_cycle;Signal;HPM_P1;HPM_P2
2024/02/17 00:01:38;;;;;;;4.30;3.07;;;9.90;99.90;;;10.48;100.00;98772.78;4981307;28;20472;-76
2024/02/17 00:04:07;;;;;;;4.53;2.83;;;9.90;99.90;;;10.44;100.00;98773.28;4982187;28;20978;-76
2024/02/17 00:06:37;;;;;;;5.30;3.00;;;9.70;99.90;;;10.48;100.00;98779.81;4982149;28;20558;-76
2024/02/17 00:09:05;;;;;;;4.70;3.23;;;9.80;99.90;;;10.38;100.00;98779.16;4982822;28;20470;-76
2024/02/17 00:11:34;;;;;;;5.90;3.40;;;9.60;99.90;;;10.23;100.00;98781.69;4981592;28;20478;-76
2024/02/17 00:14:02;;;;;;;5.00;3.47;;;9.50;99.90;;;10.21;100.00;98778.41;4981526;28;21305;-76
2024/02/17 00:16:32;;;;;;;5.93;3.40;;;9.50;99.90;;;10.19;100.00;98784.78;4981781;28;20867;-76
2024/02/17 00:19:00;;;;;;;4.00;2.83;;;9.50;99.90;;;10.13;100.00;98783.63;4982140;28;20495;-76
2024/02/17 00:21:29;;;;;;;11.93;3.77;;;9.40;99.90;;;10.10;100.00;98782.13;4980697;28;20468;-76
2024/02/17 00:23:59;;;;;;;9.67;3.50;;;9.30;99.90;;;10.10;100.00;98795.19;4982122;28;20469;-76
2024/02/17 00:26:27;;;;;;;3.87;3.03;;;9.30;99.90;;;10.06;100.00;98800.94;4981508;28;20550;-76
2024/02/17 00:28:57;;;;;;;13.87;4.33;;;9.20;99.90;;;9.87;100.00;98806.50;4982268;28;21242;-76
2024/02/17 00:31:26;;;;;;;3.87;3.00;;;9.10;99.90;;;9.76;100.00;98793.75;4981856;28;20927;-76
2024/02/17 00:33:55;;;;;;;3.70;3.30;;;9.10;99.90;;;9.77;100.00;98804.06;4981055;28;20491;-76
2024/02/17 00:36:24;;;;;;;4.30;2.90;;;9.00;99.90;;;9.69;100.00;98816.28;4982116;28;20879;-76
2024/02/17 00:38:52;;;;;;;8.10;3.63;;;8.90;99.90;;;9.60;100.00;98823.31;4981801;28;20582;-76
2024/02/17 00:41:22;;;;;;;4.13;3.03;;;8.90;99.90;;;9.62;100.00;98829.16;4980430;28;20540;-76
2024/02/17 00:43:50;;;;;;;5.47;3.90;;;8.80;99.90;;;9.63;100.00;98830.00;4980820;28;20468;-77
2024/02/17 00:46:19;;;;;;;5.60;3.83;;;8.80;99.90;;;9.60;100.00;98831.97;4982438;28;20550;-76
2024/02/17 00:48:47;;;;;;;4.93;3.27;;;8.90;99.90;;;9.58;100.00;98830.47;4982818;28;20871;-76
2024/02/17 00:51:16;;;;;;;8.50;4.30;;;9.00;99.90;;;9.50;100.00;98833.09;4980939;28;20555;-76
2024/02/17 00:53:45;;;;;;;6.27;4.13;;;8.80;99.90;;;9.47;100.00;98839.44;4981797;28;20468;-76
2024/02/17 00:56:14;;;;;;;4.70;3.30;;;8.80;99.90;;;9.42;100.00;98844.31;4980805;28;20471;-76
2024/02/17 00:58:44;;;;;;;9.10;3.60;;;8.80;99.90;;;9.43;100.00;98850.34;4980392;28;20877;-76
2024/02/17 01:01:12;;;;;;;4.93;3.63;;;8.70;99.90;;;9.35;100.00;98845.09;4980096;28;20460;-76
2024/02/17 01:03:54;;;;;;;4.47;3.50;;;8.60;99.90;;;9.25;100.00;98849.66;4980893;28;20471;-76
2024/02/17 01:06:24;;;;;;;6.73;4.67;;;8.50;99.90;;;9.16;100.00;98848.81;4981600;28;20483;-76
2024/02/17 01:08:52;;;;;;;3.43;2.90;;;8.40;99.90;;;9.16;100.00;98848.81;4982256;28;20693;-76
2024/02/17 01:11:21;;;;;;;6.83;4.03;;;8.50;99.90;;;9.23;100.00;98849.81;4980258;28;21456;-76
2024/02/17 01:13:51;;;;;;;5.30;3.80;;;8.50;99.90;;;9.24;100.00;98856.66;4979858;28;20879;-76
2024/02/17 01:16:20;;;;;;;4.80;3.40;;;8.50;99.90;;;9.13;100.00;98859.53;4980019;28;20471;-76
2024/02/17 01:18:48;;;;;;;5.10;2.57;;;8.40;99.90;;;9.07;100.00;98868.84;4981238;28;20860;-76
2024/02/17 01:21:18;;;;;;;5.20;3.63;;;8.40;99.90;;;9.06;100.00;98869.81;4980069;28;21417;-75
2024/02/17 01:23:46;;;;;;;3.97;3.20;;;8.30;99.90;;;8.99;100.00;98879.22;4981731;28;20459;-76
2024/02/17 01:26:15;;;;;;;10.37;3.30;;;8.30;99.90;;;8.97;100.00;98878.56;4980502;28;20471;-76
2024/02/17 01:28:44;;;;;;;4.50;3.40;;;8.40;99.90;;;8.96;100.00;98878.72;4981217;28;20990;-76
2024/02/17 01:31:14;;;;;;;5.80;3.60;;;8.40;99.90;;;8.94;100.00;98884.09;4980888;28;21012;-76
2024/02/17 01:33:42;;;;;;;11.30;3.30;;;8.30;99.90;;;8.94;100.00;98881.50;4979832;28;20937;-76
2024/02/17 01:36:16;;;;;;;5.90;3.37;;;8.40;99.90;;;9.00;100.00;98886.09;4981570;28;20470;-76
2024/02/17 01:38:46;;;;;;;3.73;3.00;;;8.30;99.90;;;8.98;100.00;98887.22;4980177;28;20606;-76
2024/02/17 01:41:15;;;;;;;5.00;3.50;;;8.40;99.90;;;9.00;100.00;98896.53;4981341;28;20752;-76
2024/02/17 01:43:44;;;;;;;6.03;3.37;;;8.30;99.90;;;8.94;100.00;98898.94;4980381;28;20972;-76
2024/02/17 01:46:14;;;;;;;5.60;3.90;;;8.30;99.90;;;8.92;100.00;98901.69;4981330;28;20478;-76
2024/02/17 01:48:43;;;;;;;4.80;3.27;;;8.30;99.90;;;8.91;100.00;98909.69;4980712;28;20463;-76
2024/02/17 01:51:13;;;;;;;5.10;3.57;;;8.20;99.90;;;8.94;100.00;98911.97;4981425;28;20918;-76
2024/02/17 01:53:43;;;;;;;4.50;3.53;;;8.30;99.90;;;8.89;100.00;98904.59;4978997;28;21504;-76
2024/02/17 01:56:13;;;;;;;10.50;4.17;;;8.20;99.90;;;8.87;100.00;98910.97;4979442;28;20977;-76
2024/02/17 01:58:41;;;;;;;4.87;3.70;;;8.20;99.90;;;8.90;100.00;98914.06;4980785;28;20491;-76
2024/02/17 02:01:10;;;;;;;4.10;3.17;;;8.20;99.90;;;8.89;100.00;98920.25;4980357;28;20468;-76
2024/02/17 02:03:41;;;;;;;6.03;4.07;;;8.10;99.90;;;8.92;100.00;98919.16;4979264;28;20478;-76
2024/02/17 02:06:12;;;;;;;5.47;3.80;;;8.20;99.90;;;8.89;100.00;98924.66;4980327;28;20467;-76
2024/02/17 02:08:41;;;;;;;4.33;3.70;;;8.20;99.90;;;8.89;100.00;98922.88;4980129;28;20460;-76
2024/02/17 02:11:09;;;;;;;5.17;3.80;;;8.20;99.90;;;8.91;100.00;98933.16;4980774;28;20802;-76
2024/02/17 02:13:38;;;;;;;5.47;4.10;;;8.20;99.90;;;8.95;100.00;98929.28;4979373;28;20462;-76
2024/02/17 02:16:07;;;;;;;5.80;4.30;;;8.20;99.90;;;8.95;100.00;98934.50;4977735;28;20727;-76
2024/02/17 02:18:36;;;;;;;6.43;3.50;;;8.20;99.90;;;8.94;100.00;98932.84;4980379;28;20575;-76
2024/02/17 02:21:06;;;;;;;3.60;2.97;;;8.20;99.90;;;8.89;100.00;98929.88;4980818;28;20558;-76
2024/02/17 02:23:35;;;;;;;4.10;3.40;;;8.10;99.90;;;8.90;100.00;98932.34;4979217;28;20538;-76
2024/02/17 02:26:05;;;;;;;6.07;4.30;;;8.10;99.90;;;8.96;100.00;98936.09;4979945;28;21048;-76
2024/02/17 02:28:56;;;;;;;6.33;3.73;;;8.20;99.90;;;8.98;100.00;98926.34;4979729;28;20464;-76
2024/02/17 02:31:27;;;;;;;5.40;3.60;;;8.20;99.90;;;8.95;100.00;98944.91;4979478;28;21022;-76
2024/02/17 02:33:55;;;;;;;5.03;3.20;;;8.20;99.90;;;8.93;100.00;98942.44;4978213;28;20495;-76
2024/02/17 02:36:24;;;;;;;8.90;3.87;;;8.10;99.90;;;8.96;100.00;98942.13;4979984;28;20460;-76
2024/02/17 02:38:56;;;;;;;5.50;3.90;;;8.20;99.90;;;8.93;100.00;98946.84;4980189;28;20484;-76
2024/02/17 02:41:26;;;;;;;4.00;3.23;;;8.20;99.90;;;8.91;100.00;98948.81;4980227;28;20511;-76
2024/02/17 02:43:54;;;;;;;7.10;3.40;;;8.20;99.90;;;8.93;100.00;98952.06;4978751;28;20472;-76
2024/02/17 02:46:23;;;;;;;8.43;4.20;;;8.20;99.90;;;8.92;100.00;98955.66;4981679;28;20820;-76
2024/02/17 02:48:51;;;;;;;7.30;4.50;;;8.20;99.90;;;8.95;100.00;98961.41;4980556;28;20467;-76
2024/02/17 02:51:20;;;;;;;5.27;3.97;;;8.30;99.90;;;8.99;100.00;98957.47;4979678;28;20472;-76
2024/02/17 02:53:49;;;;;;;5.20;3.60;;;8.30;99.90;;;9.01;100.00;98959.94;4980069;28;21070;-76
2024/02/17 02:56:17;;;;;;;5.77;3.97;;;8.30;99.90;;;9.05;100.00;98963.88;4980399;28;20468;-76
2024/02/17 02:58:47;;;;;;;10.53;4.13;;;8.30;99.90;;;9.08;100.00;98966.19;4980082;28;20522;-76
2024/02/17 03:01:15;;;;;;;5.93;3.73;;;8.30;99.90;;;9.08;100.00;98969.63;4979266;28;20544;-76
2024/02/17 03:03:47;;;;;;;4.67;4.17;;;8.40;99.90;;;9.07;100.00;98969.75;4978989;28;20578;-76
2024/02/17 03:06:16;;;;;;;4.60;3.37;;;8.30;99.90;;;9.04;100.00;98976.09;4981592;28;20955;-76
2024/02/17 03:08:45;;;;;;;5.20;3.57;;;8.20;99.90;;;9.05;100.00;98972.53;4984129;28;20590;-76
2024/02/17 03:11:15;;;;;;;9.13;3.80;;;8.30;99.90;;;9.04;100.00;98975.28;4983537;28;21782;-76
2024/02/17 03:13:44;;;;;;;5.27;3.80;;;8.30;99.90;;;9.04;100.00;98976.09;4982429;28;20476;-76
2024/02/17 03:16:24;;;;;;;8.17;5.00;;;8.30;99.90;;;9.06;100.00;98986.38;4980996;28;20479;-76
2024/02/17 03:18:52;;;;;;;4.57;3.70;;;8.40;99.90;;;9.09;100.00;98993.91;4984176;28;20471;-76
2024/02/17 03:21:21;;;;;;;7.00;3.53;;;8.40;99.90;;;9.12;100.00;98993.59;4983149;28;20521;-76
2024/02/17 03:23:49;;;;;;;5.23;4.03;;;8.40;99.90;;;9.07;100.00;98994.06;4982949;28;20522;-76
2024/02/17 03:26:18;;;;;;;8.73;3.73;;;8.40;99.90;;;9.01;100.00;98996.47;4982427;28;20472;-76
2024/02/17 03:28:47;;;;;;;5.10;3.87;;;8.30;99.90;;;8.96;100.00;99001.31;4982755;28;20765;-76
2024/02/17 03:31:17;;;;;;;6.20;3.90;;;8.20;99.90;;;8.96;100.00;98996.91;4983225;28;20521;-76
2024/02/17 03:33:46;;;;;;;12.20;4.17;;;8.20;99.90;;;8.93;100.00;99004.22;4983364;28;20491;-76
2024/02/17 03:36:15;;;;;;;6.13;3.93;;;8.10;99.90;;;8.90;100.00;99013.19;4982405;28;20467;-76
2024/02/17 03:38:44;;;;;;;5.60;3.43;;;8.30;99.90;;;8.91;100.00;99014.00;4982425;28;20471;-76
2024/02/17 03:41:12;;;;;;;7.33;3.53;;;8.20;99.90;;;8.90;100.00;99020.19;4983429;28;20499;-76
2024/02/17 03:43:41;;;;;;;7.53;4.20;;;8.30;99.90;;;8.94;100.00;99026.75;4983272;28;20471;-76
2024/02/17 03:46:09;;;;;;;10.67;4.10;;;8.20;99.90;;;8.85;100.00;99027.66;4980881;28;20459;-76
2024/02/17 03:48:39;;;;;;;5.20;3.33;;;8.10;99.90;;;8.73;100.00;99036.69;4983115;28;20462;-76
2024/02/17 03:51:08;;;;;;;7.80;3.70;;;8.00;99.90;;;8.77;100.00;99038.03;4983189;28;20460;-76
2024/02/17 03:53:37;;;;;;;7.67;4.23;;;8.00;99.90;;;8.77;100.00;99051.88;4982062;28;20471;-76
2024/02/17 03:56:06;;;;;;;4.90;3.90;;;8.00;99.90;;;8.77;100.00;99045.84;4982705;28;20951;-76
2024/02/17 03:58:34;;;;;;;4.90;4.00;;;8.00;99.90;;;8.74;100.00;99051.38;4983684;28;20839;-76
2024/02/17 04:01:03;;;;;;;6.33;4.27;;;8.00;99.90;;;8.70;100.00;99057.84;4982922;28;20491;-76
2024/02/17 04:03:32;;;;;;;6.47;4.00;;;7.90;99.90;;;8.72;100.00;99059.31;4982825;28;20651;-76
2024/02/17 04:06:03;;;;;;;4.60;3.60;;;8.00;99.90;;;8.74;100.00;99064.41;4981983;28;20550;-76
2024/02/17 04:08:32;;;;;;;7.00;4.13;;;8.00;99.90;;;8.77;100.00;99064.94;4983130;28;20495;-76
2024/02/17 04:11:01;;;;;;;7.60;3.87;;;8.00;99.90;;;8.66;100.00;99079.97;4981230;28;20476;-76
2024/02/17 04:13:29;;;;;;;8.83;3.97;;;7.90;99.90;;;8.63;100.00;99075.06;4982495;28;20552;-76
2024/02/17 04:15:58;;;;;;;6.17;3.50;;;7.90;99.90;;;8.55;100.00;99081.84;4981502;28;20838;-76
2024/02/17 04:18:27;;;;;;;6.33;4.57;;;7.80;99.90;;;8.53;100.00;99073.34;4982307;28;20467;-75
2024/02/17 04:20:55;;;;;;;5.70;4.27;;;7.90;99.90;;;8.54;100.00;99080.19;4982807;28;20531;-76
2024/02/17 04:23:25;;;;;;;9.33;4.10;;;7.90;99.90;;;8.54;100.00;99087.19;4982824;28;20460;-75
2024/02/17 04:25:56;;;;;;;5.13;3.70;;;7.90;99.90;;;8.46;100.00;99089.72;4980617;28;20472;-75
2024/02/17 04:28:24;;;;;;;7.43;3.93;;;7.80;99.90;;;8.42;100.00;99089.19;4982380;28;20470;-75
2024/02/17 04:30:53;;;;;;;8.00;4.27;;;7.70;99.90;;;8.38;100.00;99098.28;4982350;28;20491;-75
2024/02/17 04:33:22;;;;;;;9.93;4.63;;;7.70;99.90;;;8.38;100.00;99103.50;4981792;28;20931;-76
2024/02/17 04:35:51;;;;;;;8.80;4.03;;;7.60;99.90;;;8.28;100.00;99112.28;4980830;28;20474;-76
2024/02/17 04:38:20;;;;;;;7.33;4.10;;;7.50;99.90;;;8.29;100.00;99111.38;4981918;28;20464;-75
2024/02/17 04:40:50;;;;;;;4.63;3.70;;;7.50;99.90;;;8.22;100.00;99113.72;4981718;28;21006;-76
2024/02/17 04:43:18;;;;;;;8.50;4.17;;;7.40;99.90;;;8.15;100.00;99117.88;4982272;28;21090;-75
2024/02/17 04:45:47;;;;;;;5.83;4.40;;;7.40;99.90;;;8.10;100.00;99115.69;4980848;28;20840;-75
2024/02/17 04:48:15;;;;;;;7.33;4.37;;;7.30;99.90;;;8.12;100.00;99123.38;4981967;28;20739;-75
2024/02/17 04:50:44;;;;;;;7.83;4.33;;;7.30;99.90;;;8.10;100.00;99122.69;4982732;28;20526;-75
2024/02/17 04:53:13;;;;;;;7.10;4.40;;;7.30;99.90;;;8.02;100.00;99123.38;4981465;28;20970;-75
2024/02/17 04:55:42;;;;;;;8.83;4.50;;;7.20;99.90;;;7.98;100.00;99131.66;4981723;28;20989;-75
2024/02/17 04:58:17;;;;;;;9.03;4.50;;;7.20;99.90;;;7.95;100.00;99126.72;4981890;28;20723;-76
2024/02/17 05:00:47;;;;;;;7.70;4.83;;;7.10;99.90;;;7.96;100.00;99138.78;4980818;28;20499;-75
2024/02/17 05:03:16;;;;;;;6.47;4.03;;;7.20;99.90;;;7.92;100.00;99138.25;4981240;28;20463;-75
2024/02/17 05:05:45;;;;;;;9.13;5.17;;;7.10;99.90;;;7.86;100.00;99140.59;4981673;28;20463;-75
2024/02/17 05:08:14;;;;;;;5.30;4.20;;;7.10;99.90;;;7.82;100.00;99141.84;4981779;28;20459;-75
2024/02/17 05:10:42;;;;;;;8.73;4.57;;;7.10;99.90;;;7.79;100.00;99148.16;4980548;28;20491;-75
2024/02/17 05:13:12;;;;;;;11.43;4.53;;;7.00;99.90;;;7.69;100.00;99154.34;4979850;28;20475;-75
2024/02/17 05:15:41;;;;;;;7.20;4.37;;;6.90;99.90;;;7.65;100.00;99160.81;4978752;28;20473;-75
2024/02/17 05:18:10;;;;;;;6.87;4.70;;;6.80;99.90;;;7.62;100.00;99154.09;4981178;28;20471;-75
2024/02/17 05:20:38;;;;;;;7.17;3.67;;;6.80;99.90;;;7.62;100.00;99166.28;4981085;28;20500;-76
2024/02/17 05:23:07;;;;;;;7.13;4.00;;;6.80;99.90;;;7.53;100.00;99168.75;4980673;28;21421;-76
2024/02/17 05:25:36;;;;;;;5.60;3.60;;;6.70;99.90;;;7.57;100.00;99180.53;4981044;28;20480;-75
2024/02/17 05:28:05;;;;;;;10.20;4.13;;;6.80;99.90;;;7.55;100.00;99177.28;4981273;28;20868;-75
2024/02/17 05:30:35;;;;;;;8.27;5.00;;;6.70;99.90;;;7.54;100.00;99180.81;4979649;28;20522;-75
2024/02/17 05:33:04;;;;;;;7.70;4.37;;;6.70;99.90;;;7.47;100.00;99173.72;4981756;28;20983;-76
2024/02/17 05:35:33;;;;;;;6.43;4.17;;;6.70;99.90;;;7.44;100.00;99184.41;4979300;28;20464;-75
2024/02/17 05:38:01;;;;;;;5.40;4.00;;;6.70;99.90;;;7.48;100.00;99190.97;4980018;28;20471;-76
2024/02/17 05:40:30;;;;;;;7.47;5.03;;;6.70;99.90;;;7.46;100.00;99187.69;4982297;28;20859;-75
2024/02/17 05:42:58;;;;;;;8.57;4.93;;;6.70;99.90;;;7.42;100.00;99191.53;4979886;28;21087;-75
2024/02/17 05:45:28;;;;;;;5.90;4.10;;;6.60;99.90;;;7.34;100.00;99194.81;4980614;28;20610;-75
2024/02/17 05:47:58;;;;;;;10.03;4.23;;;6.70;99.90;;;7.28;100.00;99205.78;4978414;28;20475;-75
2024/02/17 05:50:26;;;;;;;5.70;4.17;;;6.60;99.90;;;7.32;100.00;99201.97;4977720;28;20479;-75
2024/02/17 05:52:57;;;;;;;8.23;4.23;;;6.50;99.90;;;7.25;100.00;99206.06;4970923;28;20476;-75
2024/02/17 05:55:26;;;;;;;22.60;11.00;;;6.40;99.90;;;7.21;100.00;99209.06;4972832;28;20471;-80
2024/02/17 05:57:54;;;;;;;24.83;9.40;;;6.40;99.90;;;7.21;100.00;99204.69;4970301;28;20546;-76
2024/02/17 06:00:23;;;;;;;9.90;4.57;;;6.40;99.90;;;7.21;100.00;99201.28;4972548;28;20875;-76
2024/02/17 06:02:51;;;;;;;13.77;4.70;;;6.40;99.90;;;7.16;100.00;99211.25;4983216;28;20460;-76
2024/02/17 06:05:21;;;;;;;14.97;5.10;;;6.40;99.90;;;7.14;100.00;99213.19;4981481;28;20508;-76
2024/02/17 06:07:50;;;;;;;9.20;4.80;;;6.40;99.90;;;7.17;100.00;99221.53;4975622;28;20468;-75
2024/02/17 06:10:19;;;;;;;17.63;5.00;;;6.40;99.90;;;7.15;100.00;99218.22;4974612;28;20472;-76
2024/02/17 06:12:48;;;;;;;17.80;5.73;;;6.40;99.90;;;7.16;100.00;99222.47;4974178;28;20459;-76
2024/02/17 06:15:18;;;;;;;26.57;5.10;;;6.40;99.90;;;7.18;100.00;99223.19;4977195;28;20474;-76
2024/02/17 06:21:10;;;;;;;24.20;5.93;;;6.50;99.90;;;7.14;100.00;99233.97;4979071;28;20467;-76
2024/02/17 06:23:31;;;;;;;20.83;5.00;;;6.30;99.90;;;7.04;100.00;99239.19;4959176;28;20475;-76
2024/02/17 06:25:59;;;;;;;8.67;4.17;;;6.30;99.90;;;7.05;100.00;99246.00;4979918;28;21141;-76
2024/02/17 06:28:28;;;;;;;19.00;4.47;;;6.30;99.90;;;7.09;100.00;99253.41;4979746;28;20459;-76
2024/02/17 06:30:56;;;;;;;13.23;5.00;;;6.30;99.90;;;7.16;100.00;99248.47;4979115;28;20518;-76
2024/02/17 06:33:27;;;;;;;15.40;4.97;;;6.40;99.90;;;7.12;100.00;99257.50;4979129;28;20849;-76
2024/02/17 06:35:57;;;;;;;30.53;4.83;;;6.30;99.90;;;7.06;100.00;99251.09;4979077;28;20492;-76
2024/02/17 06:38:25;;;;;;;21.37;4.50;;;6.40;99.90;;;7.00;100.00;99264.63;4978726;28;20463;-76
2024/02/17 06:40:54;;;;;;;11.70;4.30;;;6.30;99.90;;;6.99;100.00;99268.19;4981912;28;20974;-76
2024/02/17 06:43:22;;;;;;;10.93;4.50;;;6.20;99.90;;;7.13;100.00;99259.16;4982386;28;20468;-76
2024/02/17 06:45:51;;;;;;;103.27;48.90;;;6.40;99.90;;;7.11;100.00;99265.47;4978152;28;20455;-79
2024/02/17 06:48:19;;;;;;;13.20;6.50;;;6.40;99.90;;;7.16;100.00;99279.69;4978717;28;20490;-76
2024/02/17 06:50:48;;;;;;;57.07;5.60;;;6.40;99.90;;;7.05;100.00;99277.22;4983321;28;20459;-76
2024/02/17 06:53:18;;;;;;;61.67;5.87;;;6.30;99.90;;;6.98;100.00;99286.50;4983312;28;20455;-76
2024/02/17 06:55:49;;;;;;;60.33;5.97;;;6.30;99.90;;;6.91;100.00;99282.78;4982084;28;20475;-76
2024/02/17 06:58:18;;;;;;;48.03;4.47;;;6.20;99.90;;;6.88;100.00;99294.28;4983452;28;20455;-76
2024/02/17 07:00:47;;;;;;;34.00;5.50;;;6.10;99.90;;;6.87;100.00;99294.44;4982819;28;20463;-76
2024/02/17 07:03:16;;;;;;;37.80;4.30;;;6.20;99.90;;;6.87;100.00;99297.03;4983394;28;20558;-76
2024/02/17 07:05:44;;;;;;;15.40;4.67;;;6.10;99.90;;;6.89;100.00;99301.13;4983679;28;20494;-76
2024/02/17 07:08:14;;;;;;;27.90;5.17;;;6.10;99.90;;;6.88;100.00;99307.28;4982667;28;20470;-76
2024/02/17 07:10:44;;;;;;;7.30;5.10;;;6.10;99.90;;;6.97;100.00;99308.28;4982973;28;20571;-76
2024/02/17 07:13:13;;;;;;;70.30;38.53;;;6.20;99.90;;;6.98;100.00;99312.50;4984107;28;20460;-82
2024/02/17 07:15:41;;;;;;;15.00;4.63;;;6.30;99.90;;;7.09;100.00;99309.81;4979001;28;20463;-76
2024/02/17 07:18:11;;;;;;;15.70;4.27;;;6.40;99.90;;;7.07;100.00;99317.75;4982714;28;20866;-76
2024/02/17 07:20:41;;;;;;;7.60;4.83;;;6.30;99.90;;;7.03;100.00;99310.34;4983731;28;20463;-76
2024/02/17 07:23:13;;;;;;;8.63;3.97;;;6.30;99.90;;;6.98;100.00;99323.72;4983578;28;20522;-76
2024/02/17 07:25:44;;;;;;;6.90;4.47;;;6.30;99.90;;;7.00;100.00;99327.03;4983613;28;20708;-77
2024/02/17 07:28:13;;;;;;;5.80;4.20;;;6.30;99.90;;;7.01;100.00;99326.06;4984585;28;20470;-76
2024/02/17 07:30:42;;;;;;;6.10;4.20;;;6.30;99.90;;;6.99;100.00;99327.16;4984388;28;20545;-76
2024/02/17 07:33:12;;;;;;;6.17;4.73;;;6.30;99.90;;;6.98;100.00;99333.31;4983290;28;20490;-76
2024/02/17 07:35:44;;;;;;;11.83;6.07;;;6.30;99.90;;;7.03;100.00;99337.16;4982716;28;20519;-76
2024/02/17 07:38:13;;;;;;;10.13;5.60;;;6.30;99.90;;;7.06;100.00;99344.72;4984681;28;20482;-77
2024/02/17 07:40:43;;;;;;;8.43;5.80;;;6.40;99.90;;;7.10;100.00;99342.66;4983986;28;20475;-76
2024/02/17 07:43:13;;;;;;;9.70;6.13;;;6.40;99.90;;;7.17;100.00;99348.97;4983873;28;21001;-76
2024/02/17 07:45:41;;;;;;;10.93;5.70;;;6.40;99.90;;;7.21;100.00;99355.56;4982258;28;20479;-76
2024/02/17 07:48:10;;;;;;;17.03;5.37;;;6.50;99.90;;;7.27;100.00;99355.03;4982106;28;20482;-76
2024/02/17 07:50:39;;;;;;;7.57;5.37;;;6.60;99.90;;;7.33;100.00;99359.69;4984262;28;20562;-76
2024/02/17 07:53:07;;;;;;;23.50;5.00;;;6.60;99.90;;;7.36;100.00;99362.00;4982370;28;20456;-76
2024/02/17 07:55:36;;;;;;;7.87;5.00;;;6.60;99.90;;;7.36;100.00;99369.81;4981495;28;20467;-76
2024/02/17 07:58:08;;;;;;;7.23;5.77;;;6.60;99.90;;;7.38;100.00;99374.91;4983035;28;20499;-76
2024/02/17 08:00:38;;;;;;;9.70;5.73;;;6.60;99.90;;;7.39;100.00;99381.75;4981916;28;20835;-76
2024/02/17 08:03:07;;;;;;;7.83;5.80;;;6.70;99.90;;;7.45;100.00;99382.03;4980642;28;20491;-76
2024/02/17 08:05:36;;;;;;;10.90;5.83;;;6.70;99.90;;;7.50;100.00;99382.44;4981264;28;20542;-76
2024/02/17 08:08:05;;;;;;;8.70;5.87;;;6.80;99.90;;;7.55;100.00;99389.88;4982549;28;20471;-76
2024/02/17 08:10:34;;;;;;;6.97;4.53;;;6.80;99.90;;;7.58;100.00;99400.81;4982126;28;21033;-76
2024/02/17 08:13:03;;;;;;;17.90;5.57;;;6.80;99.90;;;7.65;100.00;99400.28;4983173;28;20873;-76
2024/02/17 08:15:33;;;;;;;7.40;5.47;;;6.90;99.90;;;7.74;100.00;99402.09;4981066;28;20514;-76
2024/02/17 08:18:01;;;;;;;9.80;5.80;;;7.00;99.90;;;7.78;100.00;99406.03;4977871;28;21026;-76
2024/02/17 08:20:30;;;;;;;8.50;5.50;;;7.00;99.90;;;7.82;100.00;99417.84;4979050;28;20810;-80
2024/02/17 08:22:59;;;;;;;9.10;5.23;;;7.10;99.90;;;7.84;100.00;99416.78;4968631;28;20523;-76
2024/02/17 08:25:27;;;;;;;7.63;5.40;;;7.10;99.90;;;7.90;100.00;99421.44;4981703;28;20937;-76
2024/02/17 08:27:56;;;;;;;8.93;5.93;;;7.10;99.90;;;7.97;100.00;99422.53;4981312;28;20460;-76
2024/02/17 08:30:25;;;;;;;9.23;5.90;;;7.20;99.90;;;8.03;100.00;99411.56;4980762;28;20563;-76
2024/02/17 08:32:56;;;;;;;10.33;6.13;;;7.30;99.90;;;8.08;100.00;99422.41;4979689;28;20511;-75
2024/02/17 08:35:25;;;;;;;11.67;4.47;;;7.40;99.90;;;8.16;100.00;99424.28;4980678;28;20471;-76
2024/02/17 08:37:54;;;;;;;6.47;4.83;;;7.40;99.90;;;8.21;100.00;99434.31;4979968;28;20478;-77
2024/02/17 08:40:24;;;;;;;8.50;5.40;;;7.50;99.90;;;8.23;100.00;99432.38;4978545;28;20960;-77
2024/02/17 08:42:53;;;;;;;10.73;5.00;;;7.50;99.90;;;8.31;100.00;99437.75;4972198;28;21276;-77
2024/02/17 08:45:21;;;;;;;8.80;5.40;;;7.60;99.90;;;8.37;100.00;99434.59;4978965;28;20552;-77
2024/02/17 08:47:50;;;;;;;8.03;5.77;;;7.60;99.90;;;8.42;100.00;99437.63;4979545;28;20539;-77
2024/02/17 08:50:20;;;;;;;10.60;5.47;;;7.60;99.90;;;8.46;100.00;99431.19;4981254;28;20456;-77
2024/02/17 08:52:49;;;;;;;8.00;5.37;;;7.70;99.90;;;8.55;100.00;99438.16;4981768;28;20542;-77
2024/02/17 08:55:18;;;;;;;12.43;6.40;;;7.80;99.90;;;8.61;100.00;99442.00;4982255;28;20862;-77
2024/02/17 08:57:47;;;;;;;8.67;5.90;;;7.80;99.90;;;8.69;100.00;99442.94;4981491;28;20562;-77
2024/02/17 09:00:19;;;;;;;33.17;7.20;;;7.90;99.90;;;8.73;100.00;99440.88;4977861;28;20460;-77
2024/02/17 09:02:47;;;;;;;21.53;6.77;;;8.00;99.90;;;8.82;100.00;99442.63;4975302;28;20510;-77
2024/02/17 09:05:16;;;;;;;7.53;5.50;;;8.10;99.90;;;8.89;100.00;99443.69;4979742;28;20490;-77
2024/02/17 09:07:46;;;;;;;8.17;5.67;;;8.20;99.90;;;8.94;100.00;99444.09;4975186;28;20694;-77
2024/02/17 09:10:15;;;;;;;74.53;50.13;;;8.20;99.90;;;9.01;100.00;99448.63;4973143;28;20503;-77
2024/02/17 09:12:44;;;;;;;12.07;6.10;;;8.30;99.90;;;9.09;100.00;99437.47;4971935;28;20822;-76
2024/02/17 09:15:13;;;;;;;19.30;6.60;;;8.30;99.90;;;9.15;100.00;99446.50;4974267;28;20814;-76
2024/02/17 09:17:41;;;;;;;11.03;6.20;;;8.40;99.90;;;9.20;100.00;99444.31;4973502;28;20948;-77
2024/02/17 09:20:12;;;;;;;22.70;4.60;;;8.50;99.90;;;9.27;100.00;99453.16;4972936;28;20844;-77
2024/02/17 09:22:41;;;;;;;10.20;4.80;;;8.40;99.90;;;9.32;100.00;99454.41;4974325;28;20523;-77
2024/02/17 09:25:10;;;;;;;10.63;5.83;;;8.60;99.90;;;9.35;100.00;99459.34;4969886;28;20468;-76
2024/02/17 09:27:39;;;;;;;10.57;5.63;;;8.70;99.90;;;9.41;100.00;99463.13;4973168;28;20460;-76
2024/02/17 09:30:08;;;;;;;11.43;5.07;;;8.70;99.90;;;9.45;100.00;99465.31;4970457;28;20464;-75
2024/02/17 09:32:37;;;;;;;10.07;5.57;;;8.70;99.90;;;9.51;100.00;99467.34;4970360;28;20495;-76
2024/02/17 09:35:06;;;;;;;11.00;5.97;;;8.90;99.90;;;9.54;100.00;99472.28;4971867;28;20970;-80
2024/02/17 09:37:35;;;;;;;8.20;5.20;;;8.90;99.90;;;9.59;100.00;99466.63;4969343;28;20475;-75
2024/02/17 09:40:06;;;;;;;8.37;5.40;;;9.00;99.90;;;9.63;100.00;99470.59;4980283;28;20472;-75
2024/02/17 09:42:36;;;;;;;7.23;4.53;;;9.10;99.90;;;9.70;100.00;99473.44;4979831;28;20582;-76
2024/02/17 09:45:06;;;;;;;8.20;4.90;;;9.10;99.90;;;9.78;100.00;99478.78;4979234;28;20507;-76
2024/02/17 09:47:35;;;;;;;7.80;5.10;;;9.10;99.90;;;9.85;100.00;99482.44;4978571;28;22143;-76
2024/02/17 09:50:05;;;;;;;9.23;4.77;;;9.20;99.90;;;9.89;100.00;99484.59;4978546;28;20467;-76
2024/02/17 09:52:35;;;;;;;6.70;4.63;;;9.30;99.90;;;9.94;100.00;99487.59;4980359;28;20464;-76
2024/02/17 09:55:05;;;;;;;8.07;4.60;;;9.30;99.90;;;10.02;100.00;99481.66;4980701;28;20471;-76
2024/02/17 09:57:35;;;;;;;10.20;4.70;;;9.40;99.90;;;10.08;100.00;99489.72;4979876;28;20526;-76
2024/02/17 10:00:18;;;;;;;6.73;3.97;;;9.50;99.90;;;10.13;100.00;99494.50;4979486;28;20551;-76
2024/02/17 10:02:48;;;;;;;9.70;5.60;;;9.60;99.90;;;10.20;100.00;99492.97;4981946;28;20498;-76
2024/02/17 10:05:19;;;;;;;9.87;4.70;;;9.60;99.90;;;10.27;100.00;99499.25;4981093;28;20537;-82
2024/02/17 10:07:49;;;;;;;11.50;4.73;;;9.60;99.90;;;10.33;100.00;99500.44;4976281;28;20966;-75
2024/02/17 10:10:20;;;;;;;8.20;4.33;;;9.60;99.90;;;10.36;100.00;99498.34;4980977;28;20470;-76
2024/02/17 10:12:52;;;;;;;4.83;3.93;;;9.70;99.90;;;10.38;100.00;99506.03;4983030;28;20953;-75
2024/02/17 10:15:23;;;;;;;11.93;5.70;;;9.70;99.90;;;10.43;100.00;99503.78;4981073;28;20476;-76
2024/02/17 10:17:55;;;;;;;9.27;4.63;;;9.80;99.90;;;10.49;100.00;99504.00;4980355;28;20848;-76
2024/02/17 10:20:24;;;;;;;7.13;3.80;;;9.80;99.90;;;10.58;100.00;99512.75;4979931;28;20850;-75
2024/02/17 10:22:52;;;;;;;9.10;4.10;;;9.90;99.90;;;10.63;100.00;99517.53;4981431;28;20979;-75
2024/02/17 10:25:21;;;;;;;8.13;4.47;;;9.90;99.90;;;10.64;100.00;99516.56;4980310;28;20463;-75
2024/02/17 10:27:54;;;;;;;6.60;4.67;;;10.00;99.90;;;10.68;100.00;99525.75;4982147;28;20595;-75
2024/02/17 10:30:23;;;;;;;8.60;4.07;;;10.00;99.90;;;10.76;100.00;99525.84;4979979;28;20892;-75
2024/02/17 10:32:52;;;;;;;9.13;5.53;;;10.00;99.90;;;10.81;100.00;99534.03;4980492;28;20588;-75
2024/02/17 10:35:22;;;;;;;11.10;5.40;;;10.10;99.90;;;10.87;100.00;99533.41;4976962;28;20582;-75